Disclaimer

Please do not use the information listed here in-flight or in-navigation, as they are not provided to us by the airports but are provided by volunteers, so they might be outdated.

Search


Regions


Airport information page

Radio informations:
Brisbane Center - 119.8 MHz
Common traffic adv. frequency (CTAF) - 126.7 MHz

Airport informations:
Latitude: 20° 48' 54.00" S
Longitude: 144° 13' 31.00" E
Elevation: 1043 feet - 318 meters
Operating hours: N/A
Operating agency: Civil government, landing fees and diplomatic clearance may be required
Timezone: UTC+10
Fuel: Jet A1, without icing nhibitor.

100/130 MIL Spec, low lead, aviation gasoline (BLUE)

Runway information:
06/24 - 3051 x 59 feet< - >930 x 18 meters
12/30 - 5394 x 98 feet< - >1644 x 30 meters

Recent METARs:
YHUG 181500Z AUTO 05006KT 9999 // SCT120 31/14 Q1007
YHUG 181500Z AUTO 05006KT 9999 // SCT120 31/14 Q1007
YHUG 181500Z AUTO 05006KT 9999 // SCT120 31/14 Q1007

Airport on the map: